Time;durP1;ratioP1;P1;durP2;ratioP2;P2;SDS_P1;SDS_P2;PMS_P1;PMS_P2;Temp;Humidity;BMP_temperature;BMP_pressure;BME280_temperature;BME280_humidity;BME280_pressure;Samples;Min_cycle;Max_cycle;Signal;HPM_P1;HPM_P2
2022/01/15 00:00:19;;;;;;;74.03;25.48;;;;;;;4.39;88.71;103264.88;4964450;28;20030;-72
2022/01/15 00:02:44;;;;;;;69.15;24.15;;;;;;;4.41;88.65;103260.66;4981053;28;20051;-72
2022/01/15 00:05:10;;;;;;;99.43;25.58;;;;;;;4.41;88.42;103266.81;4981680;28;20077;-80
2022/01/15 00:07:36;;;;;;;99.75;24.85;;;;;;;4.41;88.70;103263.28;4981791;28;20522;-79
2022/01/15 00:10:02;;;;;;;61.17;24.75;;;;;;;4.44;88.43;103258.28;4981515;28;20392;-77
2022/01/15 00:12:39;;;;;;;69.95;26.52;;;;;;;4.45;88.57;103261.03;4981962;28;20030;-78
2022/01/15 00:15:13;;;;;;;58.58;25.00;;;;;;;4.48;88.69;103261.22;4981141;28;20499;-78
2022/01/15 00:20:19;;;;;;;61.50;25.08;;;;;;;4.52;88.74;103263.28;4981564;28;20085;-79
2022/01/15 00:22:46;;;;;;;78.25;25.40;;;;;;;4.51;88.67;103253.63;4978191;28;20138;-76
2022/01/15 00:25:12;;;;;;;72.40;24.00;;;;;;;4.47;88.15;103250.66;4977699;28;20031;-74
2022/01/15 00:27:40;;;;;;;86.63;25.17;;;;;;;4.46;88.72;103241.00;4977103;28;20407;-74
2022/01/15 00:30:06;;;;;;;73.03;24.20;;;;;;;4.44;88.53;103246.09;4977117;28;20037;-77
2022/01/15 00:32:31;;;;;;;55.88;23.38;;;;;;;4.45;88.08;103245.31;4977234;28;20030;-77
2022/01/15 00:34:57;;;;;;;63.75;23.73;;;;;;;4.43;88.48;103243.38;4977064;28;20035;-78
2022/01/15 00:37:22;;;;;;;58.30;23.15;;;;;;;4.40;88.83;103235.28;4977092;28;20025;-79
2022/01/15 00:39:48;;;;;;;70.85;22.50;;;;;;;4.39;88.64;103242.22;4976993;28;20491;-76
2022/01/15 00:42:14;;;;;;;66.80;23.63;;;;;;;4.40;88.54;103246.66;4976826;28;20054;-77
2022/01/15 00:44:41;;;;;;;65.57;24.50;;;;;;;4.41;88.72;103238.03;4975607;28;20452;-77
2022/01/15 00:47:07;;;;;;;67.90;24.80;;;;;;;4.44;88.63;103225.16;4976883;28;20113;-78
2022/01/15 00:49:32;;;;;;;59.83;23.48;;;;;;;4.47;88.34;103221.84;4976873;28;20114;-76
2022/01/15 00:51:58;;;;;;;89.20;25.80;;;;;;;4.41;88.08;103219.72;4990409;28;20046;-77
2022/01/15 00:54:23;;;;;;;66.80;22.98;;;;;;;4.37;88.30;103214.09;4996231;28;20062;-75
2022/01/15 00:56:49;;;;;;;54.03;21.17;;;;;;;4.35;88.81;103208.78;4995560;28;20030;-76
2022/01/15 00:59:17;;;;;;;67.38;23.25;;;;;;;4.30;88.68;103207.53;4995919;28;20032;-74
2022/01/15 01:01:42;;;;;;;59.05;22.33;;;;;;;4.25;88.64;103204.56;4995965;28;20549;-79
2022/01/15 01:04:08;;;;;;;63.45;21.67;;;;;;;4.23;88.51;103208.75;4995969;28;20032;-76
2022/01/15 01:06:33;;;;;;;65.03;22.50;;;;;;;4.21;88.64;103214.69;4996006;28;20053;-77
2022/01/15 01:08:59;;;;;;;58.22;21.70;;;;;;;4.22;89.19;103217.41;4995937;28;20026;-77
2022/01/15 01:22:51;;;;;;;57.30;22.75;;;;;;;4.24;88.94;103201.84;4996101;28;20033;-78
2022/01/15 01:24:47;;;;;;;63.15;22.00;;;;;;;4.21;88.08;103192.06;4995504;28;20479;-77
2022/01/15 01:27:21;;;;;;;70.38;22.58;;;;;;;4.15;89.17;103196.81;4995348;28;20029;-76
2022/01/15 01:35:09;;;;;;;67.47;22.98;;;;;;;4.09;88.86;103192.84;4995315;28;20037;-78
2022/01/15 01:37:39;;;;;;;63.83;22.00;;;;;;;4.08;88.76;103186.72;4995373;28;20030;-77
2022/01/15 01:40:37;;;;;;;69.95;22.42;;;;;;;4.07;88.70;103184.91;4995288;28;20096;-78
2022/01/15 01:43:02;;;;;;;62.38;21.90;;;;;;;4.05;88.97;103190.78;4994497;28;20387;-75
2022/01/15 01:45:27;;;;;;;86.82;23.33;;;;;;;4.06;89.21;103188.28;4995085;28;20053;-76
2022/01/15 01:47:53;;;;;;;60.42;21.20;;;;;;;4.06;88.70;103184.75;4995049;28;20475;-77
2022/01/15 01:50:21;;;;;;;72.55;22.27;;;;;;;4.04;89.33;103182.03;4995171;28;20037;-76
2022/01/15 01:52:50;;;;;;;60.42;22.25;;;;;;;4.06;89.24;103176.91;4995134;28;20075;-74
2022/01/15 01:55:16;;;;;;;57.25;21.83;;;;;;;4.09;89.23;103182.38;4995140;28;20023;-80
2022/01/15 01:57:43;;;;;;;64.65;22.30;;;;;;;4.07;89.15;103176.09;4995000;28;20037;-77
2022/01/15 02:00:12;;;;;;;58.35;21.98;;;;;;;4.10;89.72;103176.34;4994801;28;20073;-76
2022/01/15 02:02:37;;;;;;;57.38;21.30;;;;;;;4.11;88.58;103168.63;4995008;28;20374;-76
2022/01/15 02:05:03;;;;;;;54.63;20.13;;;;;;;4.14;88.20;103167.94;4994901;28;20109;-77
2022/01/15 02:07:29;;;;;;;52.80;19.38;;;;;;;4.11;89.00;103160.78;4994796;28;20030;-76
2022/01/15 02:09:57;;;;;;;56.47;18.73;;;;;;;3.97;88.03;103166.66;4993943;28;20037;-79
2022/01/15 02:12:23;;;;;;;52.53;17.30;;;;;;;3.89;88.10;103166.09;4994605;28;20030;-75
2022/01/15 02:14:48;;;;;;;51.85;18.92;;;;;;;3.83;88.38;103159.50;4977211;28;20038;-75
2022/01/15 02:17:19;;;;;;;73.00;23.13;;;;;;;3.76;89.43;103168.56;4994516;28;20387;-79
2022/01/15 02:19:58;;;;;;;54.25;19.10;;;;;;;3.73;89.47;103169.28;4994799;28;20131;-78
2022/01/15 02:25:08;;;;;;;57.17;20.65;;;;;;;3.53;90.40;103163.31;4994605;28;20085;-78
2022/01/15 02:27:33;;;;;;;66.65;20.90;;;;;;;3.48;90.88;103157.75;4994448;28;20387;-77
2022/01/15 02:30:03;;;;;;;58.33;20.40;;;;;;;3.52;90.80;103157.19;4994456;28;20069;-77
2022/01/15 02:32:32;;;;;;;66.70;22.02;;;;;;;3.53;90.80;103159.00;4994367;28;20427;-79
2022/01/15 02:34:57;;;;;;;59.38;20.13;;;;;;;3.57;90.88;103168.91;4994369;28;20403;-78
2022/01/15 02:37:23;;;;;;;70.53;22.25;;;;;;;3.61;90.53;103157.88;4994313;28;20526;-77
2022/01/15 02:39:48;;;;;;;55.40;19.77;;;;;;;3.69;90.66;103148.00;4994266;28;20022;-76
2022/01/15 02:42:14;;;;;;;65.07;21.92;;;;;;;3.73;90.91;103137.00;4994086;28;20391;-77
2022/01/15 02:44:43;;;;;;;73.18;21.85;;;;;;;3.75;89.40;103138.00;4994172;28;20376;-78
2022/01/15 02:49:33;;;;;;;72.97;22.38;;;;;;;3.59;90.18;103130.69;4994307;28;20101;-80
2022/01/15 02:51:59;;;;;;;69.50;21.38;;;;;;;3.51;90.31;103119.69;4993986;28;20066;-76
2022/01/15 02:54:24;;;;;;;71.30;23.63;;;;;;;3.47;90.95;103111.50;4994169;28;20073;-79
2022/01/15 02:56:49;;;;;;;82.65;23.98;;;;;;;3.45;91.08;103111.38;4993797;28;20105;-77
2022/01/15 02:59:25;;;;;;;77.15;22.80;;;;;;;3.45;90.95;103116.59;4994124;28;20097;-80
2022/01/15 03:01:50;;;;;;;69.53;22.65;;;;;;;3.46;90.66;103100.09;4994025;28;20472;-78
2022/01/15 03:04:17;;;;;;;67.80;22.17;;;;;;;3.46;90.71;103101.81;4993929;28;20029;-76
2022/01/15 03:06:42;;;;;;;68.05;22.58;;;;;;;3.45;91.21;103095.69;4994246;28;20404;-79
2022/01/15 03:09:08;;;;;;;78.93;23.00;;;;;;;3.41;91.32;103096.25;4993773;28;20037;-78
2022/01/15 03:11:33;;;;;;;78.00;23.20;;;;;;;3.35;91.57;103089.66;4993693;28;20030;-76
2022/01/15 03:14:01;;;;;;;70.15;23.23;;;;;;;3.37;91.14;103088.06;4993784;28;20085;-80
2022/01/15 03:16:26;;;;;;;77.82;22.70;;;;;;;3.39;91.58;103086.50;4993736;28;20061;-79
2022/01/15 03:18:51;;;;;;;72.03;23.20;;;;;;;3.41;91.01;103083.19;4993753;28;20109;-78
2022/01/15 03:21:17;;;;;;;64.32;21.98;;;;;;;3.36;91.09;103083.63;4993671;28;20019;-76
2022/01/15 03:23:42;;;;;;;73.45;21.90;;;;;;;3.34;91.30;103079.97;4993617;28;20042;-78
2022/01/15 03:26:11;;;;;;;68.57;21.45;;;;;;;3.33;91.29;103076.47;4993697;28;20030;-76
2022/01/15 03:28:37;;;;;;;79.53;25.15;;;;;;;3.29;91.85;103078.72;4993541;28;20038;-78
2022/01/15 03:31:03;;;;;;;73.88;22.55;;;;;;;3.30;91.94;103076.25;4993590;28;20034;-80
2022/01/15 03:33:28;;;;;;;86.70;23.05;;;;;;;3.29;91.97;103077.00;4993592;28;20113;-79
2022/01/15 03:35:54;;;;;;;65.30;22.10;;;;;;;3.32;91.82;103074.66;4993608;28;20121;-78
2022/01/15 03:38:19;;;;;;;52.00;19.90;;;;;;;3.31;91.59;103075.44;4993548;28;20022;-78
2022/01/15 03:40:45;;;;;;;52.05;18.98;;;;;;;3.18;91.52;103072.69;4993589;28;20066;-77
2022/01/15 03:43:12;;;;;;;57.72;19.88;;;;;;;3.08;92.12;103080.59;4993318;28;20491;-79
2022/01/15 03:45:37;;;;;;;53.10;19.38;;;;;;;3.07;92.01;103078.78;4993576;28;20046;-76
2022/01/15 03:48:03;;;;;;;59.17;21.05;;;;;;;3.07;92.58;103070.94;4993480;28;20463;-79
2022/01/15 03:50:28;;;;;;;57.53;19.95;;;;;;;3.11;92.24;103065.16;4993313;28;20399;-79
2022/01/15 03:52:56;;;;;;;54.10;19.55;;;;;;;3.11;92.25;103071.31;4993561;28;20022;-78
2022/01/15 03:55:22;;;;;;;53.72;17.85;;;;;;;3.11;91.78;103060.84;4993494;28;20022;-78
2022/01/15 03:57:47;;;;;;;54.45;18.15;;;;;;;3.12;91.28;103067.00;4993226;28;20472;-77
2022/01/15 04:00:17;;;;;;;54.50;20.13;;;;;;;3.09;91.75;103058.94;4993313;28;20031;-76
2022/01/15 04:02:43;;;;;;;50.83;18.38;;;;;;;3.08;92.02;103068.44;4993364;28;20041;-76
2022/01/15 04:05:10;;;;;;;44.38;17.30;;;;;;;3.09;91.72;103057.22;4993346;28;20030;-76
2022/01/15 04:07:36;;;;;;;42.50;15.77;;;;;;;3.11;91.74;103057.34;4993237;28;20033;-77
2022/01/15 04:10:02;;;;;;;44.10;15.30;;;;;;;3.16;91.56;103050.75;4993353;28;20400;-76
2022/01/15 04:12:28;;;;;;;39.65;14.35;;;;;;;3.19;91.37;103045.78;4993078;28;20105;-76
2022/01/15 04:14:53;;;;;;;39.20;14.68;;;;;;;3.21;91.69;103047.72;4975963;28;20488;-76
2022/01/15 04:17:18;;;;;;;41.15;14.43;;;;;;;3.26;91.66;103035.91;4993385;28;20026;-77
2022/01/15 04:19:44;;;;;;;38.40;15.18;;;;;;;3.28;91.26;103027.28;4993144;28;20391;-77
2022/01/15 04:22:09;;;;;;;41.50;15.40;;;;;;;3.30;91.44;103029.22;4993162;28;20479;-77
2022/01/15 04:24:35;;;;;;;38.10;14.32;;;;;;;3.31;91.17;103032.72;4993228;28;20423;-76
2022/01/15 04:27:00;;;;;;;38.90;15.95;;;;;;;3.30;91.04;103028.28;4993146;28;20022;-76
2022/01/15 04:29:26;;;;;;;47.40;15.23;;;;;;;3.28;91.09;103025.56;4992989;28;20053;-78
2022/01/15 04:31:51;;;;;;;44.55;15.60;;;;;;;3.30;90.94;103018.75;4993847;28;20475;-78
2022/01/15 04:34:27;;;;;;;41.30;15.05;;;;;;;3.28;91.61;103024.66;4996692;28;20399;-77
2022/01/15 04:37:05;;;;;;;48.45;17.95;;;;;;;3.24;91.12;103026.13;4996559;28;20105;-79
2022/01/15 04:39:30;;;;;;;40.90;14.82;;;;;;;3.22;91.20;103012.97;4996436;28;20105;-78
2022/01/15 04:41:56;;;;;;;37.33;14.68;;;;;;;3.21;91.32;103013.75;4996321;28;20133;-81
2022/01/15 04:44:21;;;;;;;40.88;15.45;;;;;;;3.15;91.67;103021.13;4996408;28;20182;-76
2022/01/15 04:46:47;;;;;;;41.78;15.20;;;;;;;3.17;92.14;103010.78;4996440;28;20030;-75
2022/01/15 04:49:12;;;;;;;44.75;16.85;;;;;;;3.16;91.47;103011.56;4996288;28;20496;-75
2022/01/15 04:51:37;;;;;;;40.05;15.75;;;;;;;3.15;91.69;103004.53;4996065;28;20077;-76
2022/01/15 04:54:03;;;;;;;44.95;15.52;;;;;;;3.17;91.73;102998.66;4996362;28;20034;-78
2022/01/15 04:56:29;;;;;;;48.45;16.88;;;;;;;3.22;92.08;103001.59;4996075;28;20101;-76
2022/01/15 04:58:55;;;;;;;49.92;17.52;;;;;;;3.19;92.06;103011.81;4996152;28;20173;-75
2022/01/15 05:01:20;;;;;;;47.03;15.60;;;;;;;3.21;91.70;103003.31;4996039;28;20113;-79
2022/01/15 05:03:46;;;;;;;52.67;17.77;;;;;;;3.16;91.58;102995.91;4995990;28;20026;-77
2022/01/15 05:06:11;;;;;;;50.35;17.08;;;;;;;3.13;92.15;102999.22;4995940;28;20026;-79
2022/01/15 05:08:37;;;;;;;51.10;17.33;;;;;;;3.15;92.29;102987.16;4996249;28;20022;-78
2022/01/15 05:11:12;;;;;;;48.95;15.93;;;;;;;3.20;92.42;102992.72;4995872;28;20039;-76
2022/01/15 05:13:39;;;;;;;46.17;16.27;;;;;;;3.24;91.76;102994.78;4996001;28;20054;-76
2022/01/15 05:16:04;;;;;;;52.47;16.83;;;;;;;3.29;91.99;102995.13;4995903;28;20057;-79
2022/01/15 05:18:30;;;;;;;48.28;17.13;;;;;;;3.31;91.42;102991.84;4995733;28;20535;-75
2022/01/15 05:20:57;;;;;;;42.53;16.30;;;;;;;3.32;91.79;102991.03;4995848;28;20430;-77
2022/01/15 05:23:22;;;;;;;48.35;16.83;;;;;;;3.33;91.13;102977.16;4995776;28;20069;-76
2022/01/15 05:25:48;;;;;;;46.47;15.93;;;;;;;3.31;91.41;102983.09;4995625;28;20058;-77
2022/01/15 05:28:13;;;;;;;50.83;16.60;;;;;;;3.27;90.92;102981.94;4995442;28;20125;-77
2022/01/15 05:30:39;;;;;;;47.58;16.15;;;;;;;3.14;91.42;102972.28;4995544;28;20029;-76
2022/01/15 05:33:04;;;;;;;43.80;14.73;;;;;;;3.16;92.50;102965.47;4995505;28;20037;-77
2022/01/15 05:35:30;;;;;;;52.63;17.02;;;;;;;3.17;91.73;102967.31;4995584;28;20407;-75
2022/01/15 05:37:57;;;;;;;35.75;14.38;;;;;;;3.16;91.85;102959.31;4995503;28;20026;-75
2022/01/15 05:40:24;;;;;;;39.72;16.42;;;;;;;3.11;92.61;102960.69;4995311;28;20023;-77
2022/01/15 05:42:49;;;;;;;43.30;16.35;;;;;;;3.06;92.39;102955.13;4994983;28;20099;-76
2022/01/15 05:45:15;;;;;;;48.38;15.02;;;;;;;2.98;92.29;102946.72;4995316;28;20050;-78
2022/01/15 05:47:41;;;;;;;43.58;15.45;;;;;;;2.94;92.60;102938.53;4995132;28;20141;-78
2022/01/15 05:50:07;;;;;;;56.60;20.00;;;;;;;2.88;92.76;102945.91;4995228;28;20460;-78
2022/01/15 05:52:32;;;;;;;42.78;16.88;;;;;;;2.90;93.47;102955.66;4995013;28;20051;-75
2022/01/15 05:54:58;;;;;;;56.78;20.90;;;;;;;2.86;93.11;102947.50;4995290;28;20369;-78
2022/01/15 05:57:24;;;;;;;52.40;17.30;;;;;;;2.89;93.45;102937.28;4994936;28;20145;-78
2022/01/15 05:59:51;;;;;;;56.38;17.85;;;;;;;2.86;93.37;102934.44;4994745;28;20042;-75
2022/01/15 06:02:18;;;;;;;50.20;17.52;;;;;;;2.89;93.65;102934.69;4994808;28;20109;-78
2022/01/15 06:04:43;;;;;;;54.97;17.92;;;;;;;2.96;93.41;102936.97;4994883;28;20368;-77
2022/01/15 06:07:08;;;;;;;49.30;17.42;;;;;;;2.95;93.57;102933.41;4994864;28;20110;-78
2022/01/15 06:09:33;;;;;;;48.63;18.10;;;;;;;2.95;93.35;102933.41;4994913;28;20486;-78
2022/01/15 06:12:01;;;;;;;52.40;18.88;;;;;;;2.99;93.41;102934.56;4994738;28;20390;-76
2022/01/15 06:14:26;;;;;;;50.00;18.95;;;;;;;2.96;93.16;102927.44;4994588;28;20027;-76
2022/01/15 06:16:52;;;;;;;44.72;19.05;;;;;;;2.99;93.54;102931.94;4994677;28;20023;-77
2022/01/15 06:19:17;;;;;;;45.85;19.20;;;;;;;3.00;92.90;102933.78;4994641;28;20022;-76
2022/01/15 06:21:42;;;;;;;52.78;19.40;;;;;;;2.98;93.05;102925.81;4994568;28;20494;-77
2022/01/15 06:24:08;;;;;;;48.42;19.67;;;;;;;2.97;93.21;102929.22;4994560;28;20143;-76
2022/01/15 06:26:34;;;;;;;64.15;21.77;;;;;;;2.94;93.12;102925.47;4994513;28;20029;-76
2022/01/15 06:29:00;;;;;;;57.15;19.67;;;;;;;2.92;93.48;102919.25;4994217;28;20022;-75
2022/01/15 06:31:26;;;;;;;59.30;19.27;;;;;;;2.91;93.49;102917.41;4994378;28;20022;-76
2022/01/15 06:33:51;;;;;;;80.13;18.50;;;;;;;2.89;93.37;102914.69;4994591;28;20114;-76
2022/01/15 06:36:16;;;;;;;76.70;21.10;;;;;;;2.88;93.71;102911.97;4994418;28;20113;-76
2022/01/15 06:38:42;;;;;;;82.95;21.58;;;;;;;2.85;94.05;102917.88;4994327;28;20034;-77
2022/01/15 06:41:07;;;;;;;77.60;21.67;;;;;;;2.84;93.87;102913.44;4994211;28;20027;-78
2022/01/15 06:43:32;;;;;;;53.17;20.42;;;;;;;2.87;94.07;102911.06;4994197;28;20018;-77
2022/01/15 06:45:58;;;;;;;70.22;20.08;;;;;;;2.91;93.58;102909.56;4993996;28;20030;-77
2022/01/15 06:48:24;;;;;;;71.28;21.42;;;;;;;2.92;93.66;102900.97;4994325;28;20117;-77
2022/01/15 06:50:50;;;;;;;87.80;22.17;;;;;;;2.92;94.03;102908.81;4993999;28;20499;-76
2022/01/15 06:53:15;;;;;;;99.43;24.10;;;;;;;2.89;93.57;102903.34;4994028;28;20030;-75
2022/01/15 06:55:41;;;;;;;71.15;20.45;;;;;;;2.91;93.81;102905.28;4993617;28;20097;-76
2022/01/15 06:58:06;;;;;;;98.95;22.73;;;;;;;2.90;93.51;102900.84;4993979;28;20496;-77
2022/01/15 07:00:32;;;;;;;70.72;20.65;;;;;;;2.91;93.85;102901.75;4993917;28;20062;-75
2022/01/15 07:03:00;;;;;;;165.48;24.60;;;;;;;2.91;93.93;102906.97;4976489;28;20038;-77
2022/01/15 07:05:26;;;;;;;67.28;21.00;;;;;;;2.92;93.50;102908.81;4993969;28;20077;-78
2022/01/15 07:07:52;;;;;;;102.90;22.23;;;;;;;2.90;93.74;102906.06;4994130;28;20404;-77
2022/01/15 07:10:18;;;;;;;87.65;21.50;;;;;;;2.92;93.43;102907.09;4993901;28;20475;-77
2022/01/15 07:12:44;;;;;;;105.75;22.45;;;;;;;2.81;93.42;102909.69;4993695;28;20096;-77
2022/01/15 07:15:11;;;;;;;91.50;22.42;;;;;;;2.78;93.98;102904.22;4993648;28;20113;-75
2022/01/15 07:17:44;;;;;;;94.25;20.38;;;;;;;2.79;94.06;102909.59;4993836;28;20081;-75
2022/01/15 07:20:11;;;;;;;71.90;19.45;;;;;;;2.81;93.81;102909.69;4976282;28;20030;-75
2022/01/15 07:22:38;;;;;;;73.13;19.70;;;;;;;2.82;93.84;102906.28;4993793;28;20035;-78
2022/01/15 07:25:05;;;;;;;64.18;19.38;;;;;;;2.81;94.01;102904.47;4993726;28;20398;-78
2022/01/15 07:27:31;;;;;;;61.45;18.75;;;;;;;2.83;94.27;102908.13;4993462;28;20030;-77
2022/01/15 07:29:56;;;;;;;97.90;17.30;;;;;;;2.85;93.64;102902.19;4993711;28;20378;-76
2022/01/15 07:32:22;;;;;;;85.82;14.38;;;;;;;2.83;93.41;102906.41;4993814;28;20084;-78
2022/01/15 07:34:47;;;;;;;61.50;13.82;;;;;;;2.78;93.47;102906.84;4993675;28;20022;-75
2022/01/15 07:37:13;;;;;;;81.07;13.18;;;;;;;2.74;93.20;102906.63;4993540;28;20028;-78
2022/01/15 07:39:39;;;;;;;71.65;13.43;;;;;;;2.68;93.51;102902.63;4993566;28;20399;-76
2022/01/15 07:42:05;;;;;;;94.72;12.80;;;;;;;2.67;93.50;102906.03;4993447;28;20027;-77
2022/01/15 07:44:31;;;;;;;40.85;12.63;;;;;;;2.64;93.40;102913.63;4993312;28;20065;-76
2022/01/15 07:46:56;;;;;;;91.28;11.57;;;;;;;2.57;93.31;102907.06;4993493;28;20038;-76
2022/01/15 07:49:21;;;;;;;63.70;11.15;;;;;;;2.51;93.07;102910.09;4993615;28;20464;-76
2022/01/15 07:51:47;;;;;;;103.93;11.15;;;;;;;2.42;93.30;102905.88;4975837;28;20073;-77
2022/01/15 07:54:12;;;;;;;64.28;11.48;;;;;;;2.36;93.64;102914.16;4993581;28;20038;-77
2022/01/15 07:56:38;;;;;;;35.38;9.98;;;;;;;2.35;93.98;102920.13;4993346;28;20037;-77
2022/01/15 07:59:03;;;;;;;76.60;11.80;;;;;;;2.36;93.34;102921.06;4993358;28;20084;-78
2022/01/15 08:01:29;;;;;;;177.38;14.18;;;;;;;2.18;93.66;102925.72;4993076;28;20498;-76
2022/01/15 08:03:55;;;;;;;63.33;12.25;;;;;;;2.16;93.66;102920.41;4993354;28;20022;-77
2022/01/15 08:06:21;;;;;;;55.08;11.57;;;;;;;2.19;94.52;102912.84;4993335;28;20542;-76
2022/01/15 08:08:46;;;;;;;53.88;10.82;;;;;;;2.22;94.44;102914.75;4996654;28;20026;-77
2022/01/15 08:11:11;;;;;;;80.28;10.90;;;;;;;2.27;94.55;102908.22;4996946;28;20057;-77
2022/01/15 08:13:37;;;;;;;40.95;10.93;;;;;;;2.31;94.06;102906.72;4996815;28;20383;-78
2022/01/15 08:16:04;;;;;;;62.58;10.48;;;;;;;2.34;93.97;102910.50;4996794;28;20408;-78
2022/01/15 08:18:30;;;;;;;70.68;10.63;;;;;;;2.31;93.76;102912.84;4996852;28;20030;-79
2022/01/15 08:20:55;;;;;;;59.47;10.35;;;;;;;2.30;94.02;102902.31;4996782;28;20034;-77
2022/01/15 08:23:24;;;;;;;55.30;11.18;;;;;;;2.31;93.45;102907.63;4996748;28;20476;-76
2022/01/15 08:25:49;;;;;;;63.75;11.82;;;;;;;2.33;93.42;102899.94;4996766;28;20114;-77
2022/01/15 08:28:16;;;;;;;46.10;10.68;;;;;;;2.25;93.15;102908.09;4996637;28;20101;-79
2022/01/15 08:30:42;;;;;;;117.65;12.32;;;;;;;2.17;93.36;102905.66;4996591;28;20049;-77
2022/01/15 08:33:07;;;;;;;53.85;11.93;;;;;;;2.11;93.48;102905.22;4996530;28;20468;-78
2022/01/15 08:35:33;;;;;;;62.35;12.27;;;;;;;2.09;93.58;102905.06;4996624;28;20027;-77
2022/01/15 08:38:01;;;;;;;87.20;12.20;;;;;;;2.13;93.93;102903.63;4996567;28;20026;-75
2022/01/15 08:40:32;;;;;;;73.13;12.93;;;;;;;2.16;93.52;102899.56;4996440;28;20034;-77
2022/01/15 08:42:58;;;;;;;98.20;14.75;;;;;;;2.09;92.96;102905.06;4996223;28;20038;-78
2022/01/15 08:45:23;;;;;;;63.25;13.50;;;;;;;2.04;93.32;102903.81;4996316;28;20037;-76
2022/01/15 08:47:49;;;;;;;68.72;13.60;;;;;;;2.05;93.49;102904.72;4996237;28;20031;-78
2022/01/15 08:50:15;;;;;;;45.15;13.60;;;;;;;2.07;93.38;102904.06;4996417;28;20049;-78
2022/01/15 08:52:41;;;;;;;70.65;13.43;;;;;;;2.06;92.79;102904.84;4995985;28;20049;-79
2022/01/15 08:55:07;;;;;;;48.00;13.20;;;;;;;2.08;92.79;102907.56;4996179;28;20023;-77
2022/01/15 08:57:34;;;;;;;62.63;14.07;;;;;;;2.06;93.10;102909.16;4996090;28;20026;-77
2022/01/15 09:00:01;;;;;;;50.55;14.52;;;;;;;2.06;92.80;102909.16;4995922;28;20034;-78
2022/01/15 09:02:26;;;;;;;58.05;14.32;;;;;;;2.03;92.68;102893.25;4995945;28;20053;-78
2022/01/15 09:04:52;;;;;;;46.22;14.68;;;;;;;2.09;93.43;102909.38;4996046;28;20472;-75
2022/01/15 09:07:17;;;;;;;43.72;14.10;;;;;;;2.14;92.62;102903.75;4996027;28;20022;-75
2022/01/15 09:09:43;;;;;;;35.38;13.57;;;;;;;2.18;92.72;102895.34;4995790;28;20025;-76
2022/01/15 09:12:11;;;;;;;46.58;15.25;;;;;;;2.20;92.48;102903.31;4995897;28;20435;-78
2022/01/15 09:14:37;;;;;;;58.80;15.00;;;;;;;2.20;92.16;102892.88;4995811;28;20073;-76
2022/01/15 09:17:03;;;;;;;42.83;15.43;;;;;;;2.24;92.52;102897.53;4995742;28;20027;-77
2022/01/15 09:19:28;;;;;;;53.13;15.30;;;;;;;2.26;92.31;102896.84;4995461;28;20031;-75
2022/01/15 09:21:54;;;;;;;52.63;15.32;;;;;;;2.25;92.21;102891.53;4995715;28;20093;-76
2022/01/15 09:24:19;;;;;;;42.83;15.52;;;;;;;2.26;92.27;102889.03;4995741;28;20109;-75
2022/01/15 09:26:48;;;;;;;42.67;14.82;;;;;;;2.24;91.91;102879.28;4995668;28;20026;-76
2022/01/15 09:32:00;;;;;;;62.28;17.67;;;;;;;2.13;91.55;102882.75;4995690;28;20046;-76
2022/01/15 09:34:26;;;;;;;33.97;14.52;;;;;;;2.09;91.42;102876.38;4995741;28;20023;-77
2022/01/15 09:36:52;;;;;;;51.03;14.80;;;;;;;1.98;91.85;102875.56;4995449;28;20027;-78
2022/01/15 09:39:20;;;;;;;43.83;15.30;;;;;;;1.88;92.28;102872.09;4995517;28;20019;-75
2022/01/15 09:41:48;;;;;;;46.08;16.42;;;;;;;1.85;92.82;102864.06;4995531;28;20046;-78
2022/01/15 09:44:17;;;;;;;49.42;15.95;;;;;;;1.89;92.75;102868.72;4995121;28;20460;-76
2022/01/15 09:46:45;;;;;;;54.30;15.40;;;;;;;1.91;92.97;102877.56;4995337;28;20073;-76
2022/01/15 09:49:14;;;;;;;35.15;16.45;;;;;;;1.93;92.80;102866.47;4995195;28;20085;-77
2022/01/15 09:51:39;;;;;;;47.25;16.88;;;;;;;1.97;92.97;102865.00;4995059;28;20651;-76
2022/01/15 09:54:05;;;;;;;44.50;16.35;;;;;;;1.98;92.89;102859.03;4995185;28;20113;-75
2022/01/15 09:56:30;;;;;;;50.13;15.50;;;;;;;1.99;92.84;102877.38;4995089;28;20467;-78
2022/01/15 09:58:58;;;;;;;45.88;15.30;;;;;;;1.99;93.37;102866.03;4995017;28;20495;-76
2022/01/15 10:01:26;;;;;;;36.50;16.15;;;;;;;2.05;93.61;102866.50;4994955;28;20049;-77
2022/01/15 10:03:52;;;;;;;43.85;17.92;;;;;;;2.05;92.97;102870.81;4995043;28;20117;-78
2022/01/15 10:06:18;;;;;;;38.75;14.90;;;;;;;1.93;93.06;102865.56;4995151;28;20050;-77
2022/01/15 10:08:58;;;;;;;32.95;13.63;;;;;;;1.85;93.70;102874.50;4994868;28;20520;-78
2022/01/15 10:11:47;;;;;;;59.65;17.38;;;;;;;1.82;93.21;102890.78;4995043;28;20030;-75
2022/01/15 10:14:31;;;;;;;42.00;16.73;;;;;;;1.84;93.89;102872.66;4994609;28;20042;-76
2022/01/15 10:16:59;;;;;;;87.50;16.92;;;;;;;1.82;93.70;102884.66;4995016;28;20122;-79
2022/01/15 10:19:27;;;;;;;47.08;16.92;;;;;;;1.85;93.51;102883.22;4994833;28;20022;-78
2022/01/15 10:22:18;;;;;;;38.28;15.88;;;;;;;1.89;93.87;102879.16;4994478;28;20029;-76
2022/01/15 10:24:53;;;;;;;38.50;15.90;;;;;;;1.92;93.93;102875.06;4994501;28;20118;-76
2022/01/15 10:27:32;;;;;;;43.28;15.82;;;;;;;1.97;93.53;102884.19;4994440;28;20026;-77
2022/01/15 10:30:07;;;;;;;55.83;17.92;;;;;;;1.98;93.52;102872.97;4993603;28;20026;-75
2022/01/15 10:32:35;;;;;;;41.50;16.65;;;;;;;1.99;93.34;102866.94;4994334;28;20026;-76
2022/01/15 10:35:10;;;;;;;40.38;17.00;;;;;;;2.01;93.41;102861.84;4994454;28;20037;-75
2022/01/15 10:37:50;;;;;;;47.92;18.15;;;;;;;2.06;93.16;102857.91;4994580;28;20018;-78
2022/01/15 10:40:16;;;;;;;52.58;17.58;;;;;;;2.08;93.24;102853.72;4994166;28;20152;-78
2022/01/15 10:42:51;;;;;;;45.50;19.05;;;;;;;2.10;93.64;102848.59;4994171;28;20030;-77
2022/01/15 10:45:17;;;;;;;51.80;19.48;;;;;;;2.10;93.51;102852.16;4993999;28;20481;-78
2022/01/15 10:47:50;;;;;;;64.43;19.08;;;;;;;2.10;93.50;102856.44;4994317;28;20062;-76
2022/01/15 10:50:29;;;;;;;54.83;19.30;;;;;;;2.06;93.56;102855.31;4994119;28;20049;-77
2022/01/15 10:52:58;;;;;;;52.17;18.85;;;;;;;2.05;93.93;102843.03;4974661;28;20039;-75
2022/01/15 10:55:31;;;;;;;47.55;18.90;;;;;;;2.11;94.37;102855.66;4974685;28;20027;-77
2022/01/15 10:57:57;;;;;;;50.25;17.98;;;;;;;2.14;93.68;102849.00;4974191;28;20039;-76
2022/01/15 11:00:38;;;;;;;59.08;19.10;;;;;;;2.13;93.43;102856.66;4974443;28;20038;-77
2022/01/15 11:03:07;;;;;;;50.58;18.42;;;;;;;2.11;93.72;102847.84;4974624;28;20031;-80
2022/01/15 11:05:38;;;;;;;44.13;17.52;;;;;;;2.12;93.68;102850.56;4974504;28;20031;-77
2022/01/15 11:08:12;;;;;;;45.88;18.42;;;;;;;2.16;93.85;102846.47;4974487;28;20030;-75
2022/01/15 11:11:03;;;;;;;50.53;18.05;;;;;;;2.19;93.83;102832.00;4974494;28;20480;-76
2022/01/15 11:13:39;;;;;;;59.92;19.70;;;;;;;2.27;93.71;102829.97;4973243;28;20511;-72
2022/01/15 11:16:15;;;;;;;60.35;18.88;;;;;;;2.33;93.90;102827.81;4974439;28;20027;-73
2022/01/15 11:18:43;;;;;;;57.00;19.23;;;;;;;2.40;93.59;102832.72;4974959;28;20038;-77
2022/01/15 11:21:13;;;;;;;48.80;17.05;;;;;;;2.45;93.34;102828.75;4974158;28;20039;-76
2022/01/15 11:23:41;;;;;;;44.13;17.50;;;;;;;2.39;93.23;102820.44;4975004;28;20049;-78
2022/01/15 11:26:10;;;;;;;48.85;17.75;;;;;;;2.43;93.53;102827.69;4974199;28;20026;-77
2022/01/15 11:28:37;;;;;;;63.90;16.60;;;;;;;2.42;93.21;102830.22;4973182;28;20148;-80
2022/01/15 11:31:07;;;;;;;68.70;19.90;;;;;;;2.36;92.94;102814.09;4974561;28;20392;-74
2022/01/15 11:33:38;;;;;;;50.08;18.13;;;;;;;2.35;93.66;102812.25;4973219;28;20023;-79
2022/01/15 11:36:07;;;;;;;55.78;17.85;;;;;;;2.39;93.61;102809.09;4974420;28;20031;-75
2022/01/15 11:38:46;;;;;;;44.30;19.02;;;;;;;2.45;93.80;102807.88;4973030;28;20027;-72
2022/01/15 11:41:27;;;;;;;51.00;19.13;;;;;;;2.51;93.55;102810.03;4975325;28;20038;-71
2022/01/15 11:43:57;;;;;;;37.65;17.23;;;;;;;2.55;93.25;102803.34;4978078;28;20050;-72